Aviation Digital Data Service (ADDS)

Output produced by METARs form (1310 UTC 01 April 2015)
found at http://aviationweather.gov/adds/metars/
 
KGON 011120Z 0112/0212 33008KT P6SM SCT250 
     FM011400 32010KT P6SM SCT100 BKN200 
     FM011900 29010G16KT P6SM SCT040 SCT100 SCT200 
     FM012300 30005KT P6SM SKC